sensor_id;sensor_type;location;lat;lon;timestamp;temperature;humidity
42683;DHT22;28293;50.930;3.464;2022-08-24T00:00:57;21.30;80.10
42683;DHT22;28293;50.930;3.464;2022-08-24T00:03:23;21.30;80.30
42683;DHT22;28293;50.930;3.464;2022-08-24T00:05:49;21.30;80.30
42683;DHT22;28293;50.930;3.464;2022-08-24T00:08:15;21.10;80.50
42683;DHT22;28293;50.930;3.464;2022-08-24T00:10:42;21.20;80.70
42683;DHT22;28293;50.930;3.464;2022-08-24T00:13:07;21.20;80.80
42683;DHT22;28293;50.930;3.464;2022-08-24T00:15:33;21.10;80.90
42683;DHT22;28293;50.930;3.464;2022-08-24T00:17:59;21.10;81.00
42683;DHT22;28293;50.930;3.464;2022-08-24T00:20:25;21.00;81.10
42683;DHT22;28293;50.930;3.464;2022-08-24T00:22:51;21.00;81.30
42683;DHT22;28293;50.930;3.464;2022-08-24T00:25:17;21.00;81.40
42683;DHT22;28293;50.930;3.464;2022-08-24T00:27:45;20.90;81.60
42683;DHT22;28293;50.930;3.464;2022-08-24T00:30:14;20.90;81.80
42683;DHT22;28293;50.930;3.464;2022-08-24T00:32:41;20.90;82.00
42683;DHT22;28293;50.930;3.464;2022-08-24T00:35:08;20.80;82.20
42683;DHT22;28293;50.930;3.464;2022-08-24T00:37:35;20.80;82.20
42683;DHT22;28293;50.930;3.464;2022-08-24T00:40:01;20.80;81.90
42683;DHT22;28293;50.930;3.464;2022-08-24T00:42:27;20.80;82.10
42683;DHT22;28293;50.930;3.464;2022-08-24T00:44:53;20.70;82.30
42683;DHT22;28293;50.930;3.464;2022-08-24T00:47:33;20.80;82.20
42683;DHT22;28293;50.930;3.464;2022-08-24T00:50:07;20.70;82.40
42683;DHT22;28293;50.930;3.464;2022-08-24T00:52:55;20.70;82.50
42683;DHT22;28293;50.930;3.464;2022-08-24T00:55:29;20.80;82.60
42683;DHT22;28293;50.930;3.464;2022-08-24T00:58:00;20.80;82.60
42683;DHT22;28293;50.930;3.464;2022-08-24T01:00:29;20.80;82.60
42683;DHT22;28293;50.930;3.464;2022-08-24T01:02:59;20.80;82.50
42683;DHT22;28293;50.930;3.464;2022-08-24T01:05:30;20.70;82.40
42683;DHT22;28293;50.930;3.464;2022-08-24T01:07:56;20.80;82.50
42683;DHT22;28293;50.930;3.464;2022-08-24T01:10:28;20.80;82.60
42683;DHT22;28293;50.930;3.464;2022-08-24T01:12:57;20.70;82.50
42683;DHT22;28293;50.930;3.464;2022-08-24T01:15:25;20.60;82.50
42683;DHT22;28293;50.930;3.464;2022-08-24T01:17:51;20.60;82.50
42683;DHT22;28293;50.930;3.464;2022-08-24T01:20:45;20.60;82.50
42683;DHT22;28293;50.930;3.464;2022-08-24T01:23:29;20.60;82.60
42683;DHT22;28293;50.930;3.464;2022-08-24T01:25:57;20.60;82.70
42683;DHT22;28293;50.930;3.464;2022-08-24T01:28:24;20.50;82.70
42683;DHT22;28293;50.930;3.464;2022-08-24T01:30:50;20.50;82.60
42683;DHT22;28293;50.930;3.464;2022-08-24T01:33:25;20.50;82.70
42683;DHT22;28293;50.930;3.464;2022-08-24T01:35:57;20.40;82.70
42683;DHT22;28293;50.930;3.464;2022-08-24T01:38:24;20.30;82.70
42683;DHT22;28293;50.930;3.464;2022-08-24T01:40:55;20.30;82.80
42683;DHT22;28293;50.930;3.464;2022-08-24T01:43:22;20.30;83.00
42683;DHT22;28293;50.930;3.464;2022-08-24T01:45:49;20.30;83.10
42683;DHT22;28293;50.930;3.464;2022-08-24T01:48:15;20.20;83.20
42683;DHT22;28293;50.930;3.464;2022-08-24T01:50:41;20.30;83.30
42683;DHT22;28293;50.930;3.464;2022-08-24T01:53:07;20.30;83.40
42683;DHT22;28293;50.930;3.464;2022-08-24T01:55:33;20.30;83.50
42683;DHT22;28293;50.930;3.464;2022-08-24T01:58:00;20.30;83.30
42683;DHT22;28293;50.930;3.464;2022-08-24T02:00:26;20.20;83.20
42683;DHT22;28293;50.930;3.464;2022-08-24T02:02:52;20.10;83.40
42683;DHT22;28293;50.930;3.464;2022-08-24T02:05:18;20.10;83.80
42683;DHT22;28293;50.930;3.464;2022-08-24T02:07:44;20.10;84.10
42683;DHT22;28293;50.930;3.464;2022-08-24T02:10:11;20.00;84.10
42683;DHT22;28293;50.930;3.464;2022-08-24T02:12:39;20.00;84.30
42683;DHT22;28293;50.930;3.464;2022-08-24T02:15:06;20.00;84.50
42683;DHT22;28293;50.930;3.464;2022-08-24T02:17:33;20.00;84.50
42683;DHT22;28293;50.930;3.464;2022-08-24T02:20:00;20.00;84.40
42683;DHT22;28293;50.930;3.464;2022-08-24T02:22:26;20.00;84.20
42683;DHT22;28293;50.930;3.464;2022-08-24T02:24:52;19.90;84.40
42683;DHT22;28293;50.930;3.464;2022-08-24T02:27:17;19.90;84.60
42683;DHT22;28293;50.930;3.464;2022-08-24T02:29:43;19.90;84.50
42683;DHT22;28293;50.930;3.464;2022-08-24T02:32:09;19.90;84.60
42683;DHT22;28293;50.930;3.464;2022-08-24T02:34:36;20.00;84.30
42683;DHT22;28293;50.930;3.464;2022-08-24T02:37:03;19.90;84.10
42683;DHT22;28293;50.930;3.464;2022-08-24T02:39:29;19.90;84.20
42683;DHT22;28293;50.930;3.464;2022-08-24T02:41:55;19.90;84.30
42683;DHT22;28293;50.930;3.464;2022-08-24T02:44:21;19.80;84.20
42683;DHT22;28293;50.930;3.464;2022-08-24T02:46:47;19.80;84.20
42683;DHT22;28293;50.930;3.464;2022-08-24T02:49:12;19.80;84.20
42683;DHT22;28293;50.930;3.464;2022-08-24T02:51:40;19.70;84.30
42683;DHT22;28293;50.930;3.464;2022-08-24T02:54:06;19.70;84.30
42683;DHT22;28293;50.930;3.464;2022-08-24T02:56:32;19.80;84.50
42683;DHT22;28293;50.930;3.464;2022-08-24T02:58:59;19.70;84.50
42683;DHT22;28293;50.930;3.464;2022-08-24T03:01:26;19.70;84.40
42683;DHT22;28293;50.930;3.464;2022-08-24T03:03:52;19.70;84.40
42683;DHT22;28293;50.930;3.464;2022-08-24T03:06:18;19.70;84.30
42683;DHT22;28293;50.930;3.464;2022-08-24T03:08:44;19.70;84.30
42683;DHT22;28293;50.930;3.464;2022-08-24T03:11:11;19.60;84.50
42683;DHT22;28293;50.930;3.464;2022-08-24T03:13:38;19.60;84.60
42683;DHT22;28293;50.930;3.464;2022-08-24T03:16:04;19.50;84.90
42683;DHT22;28293;50.930;3.464;2022-08-24T03:18:31;19.50;85.10
42683;DHT22;28293;50.930;3.464;2022-08-24T03:20:58;19.50;85.30
42683;DHT22;28293;50.930;3.464;2022-08-24T03:23:25;19.50;85.40
42683;DHT22;28293;50.930;3.464;2022-08-24T03:25:54;19.50;85.50
42683;DHT22;28293;50.930;3.464;2022-08-24T03:28:20;19.50;85.60
42683;DHT22;28293;50.930;3.464;2022-08-24T03:30:47;19.50;85.80
42683;DHT22;28293;50.930;3.464;2022-08-24T03:33:14;19.50;85.90
42683;DHT22;28293;50.930;3.464;2022-08-24T03:35:40;19.40;86.00
42683;DHT22;28293;50.930;3.464;2022-08-24T03:38:05;19.40;86.10
42683;DHT22;28293;50.930;3.464;2022-08-24T03:40:31;19.30;86.10
42683;DHT22;28293;50.930;3.464;2022-08-24T03:42:58;19.30;86.20
42683;DHT22;28293;50.930;3.464;2022-08-24T03:45:25;19.30;86.40
42683;DHT22;28293;50.930;3.464;2022-08-24T03:47:51;19.30;86.40
42683;DHT22;28293;50.930;3.464;2022-08-24T03:50:19;19.30;86.40
42683;DHT22;28293;50.930;3.464;2022-08-24T03:52:45;19.40;86.40
42683;DHT22;28293;50.930;3.464;2022-08-24T03:55:12;19.40;86.40
42683;DHT22;28293;50.930;3.464;2022-08-24T03:57:38;19.40;86.20
42683;DHT22;28293;50.930;3.464;2022-08-24T04:00:06;19.40;86.20
42683;DHT22;28293;50.930;3.464;2022-08-24T04:02:33;19.40;86.10
42683;DHT22;28293;50.930;3.464;2022-08-24T04:04:59;19.40;86.10
42683;DHT22;28293;50.930;3.464;2022-08-24T04:07:25;19.30;86.10
42683;DHT22;28293;50.930;3.464;2022-08-24T04:09:50;19.30;86.20
42683;DHT22;28293;50.930;3.464;2022-08-24T04:12:16;19.30;86.10
42683;DHT22;28293;50.930;3.464;2022-08-24T04:14:42;19.30;85.90
42683;DHT22;28293;50.930;3.464;2022-08-24T04:17:08;19.30;85.90
42683;DHT22;28293;50.930;3.464;2022-08-24T04:19:36;19.20;86.00
42683;DHT22;28293;50.930;3.464;2022-08-24T04:22:01;19.20;86.20
42683;DHT22;28293;50.930;3.464;2022-08-24T04:24:27;19.20;86.30
42683;DHT22;28293;50.930;3.464;2022-08-24T04:26:53;19.20;86.30
42683;DHT22;28293;50.930;3.464;2022-08-24T04:29:19;19.20;86.30
42683;DHT22;28293;50.930;3.464;2022-08-24T04:31:46;19.20;86.30
42683;DHT22;28293;50.930;3.464;2022-08-24T04:34:13;19.20;86.20
42683;DHT22;28293;50.930;3.464;2022-08-24T04:36:41;19.20;86.20
42683;DHT22;28293;50.930;3.464;2022-08-24T04:39:07;19.20;86.20
42683;DHT22;28293;50.930;3.464;2022-08-24T04:41:34;19.20;86.00
42683;DHT22;28293;50.930;3.464;2022-08-24T04:44:00;19.20;85.80
42683;DHT22;28293;50.930;3.464;2022-08-24T04:46:26;19.20;85.70
42683;DHT22;28293;50.930;3.464;2022-08-24T04:48:52;19.10;85.60
42683;DHT22;28293;50.930;3.464;2022-08-24T04:51:19;19.20;85.40
42683;DHT22;28293;50.930;3.464;2022-08-24T04:53:45;19.10;85.50
42683;DHT22;28293;50.930;3.464;2022-08-24T04:56:19;19.10;85.60
42683;DHT22;28293;50.930;3.464;2022-08-24T04:58:47;19.20;85.70
42683;DHT22;28293;50.930;3.464;2022-08-24T05:01:20;19.20;85.80
42683;DHT22;28293;50.930;3.464;2022-08-24T05:03:48;19.30;85.70
42683;DHT22;28293;50.930;3.464;2022-08-24T05:06:16;19.30;85.40
42683;DHT22;28293;50.930;3.464;2022-08-24T05:08:41;19.30;85.30
42683;DHT22;28293;50.930;3.464;2022-08-24T05:11:07;19.40;85.30
42683;DHT22;28293;50.930;3.464;2022-08-24T05:13:34;19.40;85.10
42683;DHT22;28293;50.930;3.464;2022-08-24T05:16:00;19.40;85.10
42683;DHT22;28293;50.930;3.464;2022-08-24T05:18:29;19.50;85.00
42683;DHT22;28293;50.930;3.464;2022-08-24T05:20:58;19.60;84.90
42683;DHT22;28293;50.930;3.464;2022-08-24T05:23:24;19.60;84.80
42683;DHT22;28293;50.930;3.464;2022-08-24T05:25:50;19.70;84.60
42683;DHT22;28293;50.930;3.464;2022-08-24T05:28:16;19.80;84.60
42683;DHT22;28293;50.930;3.464;2022-08-24T05:30:41;19.80;84.50
42683;DHT22;28293;50.930;3.464;2022-08-24T05:33:07;19.90;84.30
42683;DHT22;28293;50.930;3.464;2022-08-24T05:35:37;20.00;84.10
42683;DHT22;28293;50.930;3.464;2022-08-24T05:38:03;20.10;83.80
42683;DHT22;28293;50.930;3.464;2022-08-24T05:40:29;20.10;83.70
42683;DHT22;28293;50.930;3.464;2022-08-24T05:42:55;20.10;83.50
42683;DHT22;28293;50.930;3.464;2022-08-24T05:45:20;20.20;83.80
42683;DHT22;28293;50.930;3.464;2022-08-24T05:47:46;20.30;83.60
42683;DHT22;28293;50.930;3.464;2022-08-24T05:50:12;20.40;83.40
42683;DHT22;28293;50.930;3.464;2022-08-24T05:52:37;20.60;83.10
42683;DHT22;28293;50.930;3.464;2022-08-24T05:55:05;20.60;82.60
42683;DHT22;28293;50.930;3.464;2022-08-24T05:57:32;20.70;82.60
42683;DHT22;28293;50.930;3.464;2022-08-24T05:59:58;20.80;82.30
42683;DHT22;28293;50.930;3.464;2022-08-24T06:02:24;20.90;82.10
42683;DHT22;28293;50.930;3.464;2022-08-24T06:04:49;21.00;81.80
42683;DHT22;28293;50.930;3.464;2022-08-24T06:07:15;21.10;81.70
42683;DHT22;28293;50.930;3.464;2022-08-24T06:09:41;21.10;81.70
42683;DHT22;28293;50.930;3.464;2022-08-24T06:12:07;21.10;81.40
42683;DHT22;28293;50.930;3.464;2022-08-24T06:14:34;21.20;81.30
42683;DHT22;28293;50.930;3.464;2022-08-24T06:17:05;21.30;81.30
42683;DHT22;28293;50.930;3.464;2022-08-24T06:19:32;21.30;81.30
42683;DHT22;28293;50.930;3.464;2022-08-24T06:21:58;21.40;81.20
42683;DHT22;28293;50.930;3.464;2022-08-24T06:24:24;21.40;81.20
42683;DHT22;28293;50.930;3.464;2022-08-24T06:27:11;21.50;81.00
42683;DHT22;28293;50.930;3.464;2022-08-24T06:29:57;21.50;81.10
42683;DHT22;28293;50.930;3.464;2022-08-24T06:32:23;21.50;81.20
42683;DHT22;28293;50.930;3.464;2022-08-24T06:34:50;21.60;81.30
42683;DHT22;28293;50.930;3.464;2022-08-24T06:37:19;21.60;81.00
42683;DHT22;28293;50.930;3.464;2022-08-24T06:39:45;21.60;80.90
42683;DHT22;28293;50.930;3.464;2022-08-24T06:42:11;21.70;80.90
42683;DHT22;28293;50.930;3.464;2022-08-24T06:44:37;21.90;80.60
42683;DHT22;28293;50.930;3.464;2022-08-24T06:47:03;21.90;80.00
42683;DHT22;28293;50.930;3.464;2022-08-24T06:49:28;22.10;80.10
42683;DHT22;28293;50.930;3.464;2022-08-24T06:51:54;22.20;79.80
42683;DHT22;28293;50.930;3.464;2022-08-24T06:54:20;22.40;79.80
42683;DHT22;28293;50.930;3.464;2022-08-24T06:56:45;22.50;80.00
42683;DHT22;28293;50.930;3.464;2022-08-24T06:59:11;22.60;79.60
42683;DHT22;28293;50.930;3.464;2022-08-24T07:01:37;22.80;79.30
42683;DHT22;28293;50.930;3.464;2022-08-24T07:04:03;23.00;78.50
42683;DHT22;28293;50.930;3.464;2022-08-24T07:06:29;23.00;78.90
42683;DHT22;28293;50.930;3.464;2022-08-24T07:08:54;23.10;78.20
42683;DHT22;28293;50.930;3.464;2022-08-24T07:11:21;23.10;78.70
42683;DHT22;28293;50.930;3.464;2022-08-24T07:13:48;23.10;78.80
42683;DHT22;28293;50.930;3.464;2022-08-24T07:16:16;23.30;78.90
42683;DHT22;28293;50.930;3.464;2022-08-24T07:18:42;23.40;78.30
42683;DHT22;28293;50.930;3.464;2022-08-24T07:21:08;23.50;78.20
42683;DHT22;28293;50.930;3.464;2022-08-24T07:23:35;23.50;77.90
42683;DHT22;28293;50.930;3.464;2022-08-24T07:26:12;23.60;77.70
42683;DHT22;28293;50.930;3.464;2022-08-24T07:28:38;23.60;78.00
42683;DHT22;28293;50.930;3.464;2022-08-24T07:31:05;23.60;78.20
42683;DHT22;28293;50.930;3.464;2022-08-24T07:33:31;23.60;78.10
42683;DHT22;28293;50.930;3.464;2022-08-24T07:35:57;23.60;77.70
42683;DHT22;28293;50.930;3.464;2022-08-24T07:38:23;23.60;77.70
42683;DHT22;28293;50.930;3.464;2022-08-24T07:40:49;23.60;77.50
42683;DHT22;28293;50.930;3.464;2022-08-24T07:43:15;23.70;77.30
42683;DHT22;28293;50.930;3.464;2022-08-24T07:45:41;23.80;76.90
42683;DHT22;28293;50.930;3.464;2022-08-24T07:48:07;23.80;77.30
42683;DHT22;28293;50.930;3.464;2022-08-24T07:50:33;23.90;76.60
42683;DHT22;28293;50.930;3.464;2022-08-24T07:52:59;23.80;76.30
42683;DHT22;28293;50.930;3.464;2022-08-24T07:55:25;24.20;77.00
42683;DHT22;28293;50.930;3.464;2022-08-24T07:57:51;24.60;75.10
42683;DHT22;28293;50.930;3.464;2022-08-24T08:00:17;24.90;73.70
42683;DHT22;28293;50.930;3.464;2022-08-24T08:02:44;25.30;73.00
42683;DHT22;28293;50.930;3.464;2022-08-24T08:05:14;25.50;71.90
42683;DHT22;28293;50.930;3.464;2022-08-24T08:07:40;25.60;70.90
42683;DHT22;28293;50.930;3.464;2022-08-24T08:10:07;25.80;71.30
42683;DHT22;28293;50.930;3.464;2022-08-24T08:12:33;25.80;71.30
42683;DHT22;28293;50.930;3.464;2022-08-24T08:14:59;26.10;70.10
42683;DHT22;28293;50.930;3.464;2022-08-24T08:17:25;26.40;68.50
42683;DHT22;28293;50.930;3.464;2022-08-24T08:19:51;26.50;67.90
42683;DHT22;28293;50.930;3.464;2022-08-24T08:22:17;26.40;68.30
42683;DHT22;28293;50.930;3.464;2022-08-24T08:25:01;26.50;67.90
42683;DHT22;28293;50.930;3.464;2022-08-24T08:27:27;26.70;66.60
42683;DHT22;28293;50.930;3.464;2022-08-24T08:29:52;26.80;65.10
42683;DHT22;28293;50.930;3.464;2022-08-24T08:32:18;26.70;65.80
42683;DHT22;28293;50.930;3.464;2022-08-24T08:34:45;26.90;65.40
42683;DHT22;28293;50.930;3.464;2022-08-24T08:37:12;27.00;65.40
42683;DHT22;28293;50.930;3.464;2022-08-24T08:39:38;26.90;65.60
42683;DHT22;28293;50.930;3.464;2022-08-24T08:42:11;27.00;65.60
42683;DHT22;28293;50.930;3.464;2022-08-24T08:50:41;27.30;63.50
42683;DHT22;28293;50.930;3.464;2022-08-24T09:07:58;28.20;60.80
42683;DHT22;28293;50.930;3.464;2022-08-24T09:16:04;27.70;61.50
42683;DHT22;28293;50.930;3.464;2022-08-24T09:19:43;27.80;61.60
42683;DHT22;28293;50.930;3.464;2022-08-24T09:22:14;27.80;61.00
42683;DHT22;28293;50.930;3.464;2022-08-24T09:27:36;28.10;59.70
42683;DHT22;28293;50.930;3.464;2022-08-24T09:30:22;28.20;59.50
42683;DHT22;28293;50.930;3.464;2022-08-24T09:55:59;29.90;52.80
42683;DHT22;28293;50.930;3.464;2022-08-24T09:59:06;30.00;53.10
42683;DHT22;28293;50.930;3.464;2022-08-24T10:01:47;29.90;52.10
42683;DHT22;28293;50.930;3.464;2022-08-24T10:04:29;30.00;53.30
42683;DHT22;28293;50.930;3.464;2022-08-24T10:07:17;30.20;52.60
42683;DHT22;28293;50.930;3.464;2022-08-24T10:12:44;30.80;50.20
42683;DHT22;28293;50.930;3.464;2022-08-24T10:15:27;30.70;50.10
42683;DHT22;28293;50.930;3.464;2022-08-24T10:18:16;30.90;49.00
42683;DHT22;28293;50.930;3.464;2022-08-24T10:21:00;30.90;49.20
42683;DHT22;28293;50.930;3.464;2022-08-24T10:24:09;30.60;49.10
42683;DHT22;28293;50.930;3.464;2022-08-24T10:32:17;31.00;48.50
42683;DHT22;28293;50.930;3.464;2022-08-24T10:40:33;31.30;46.30
42683;DHT22;28293;50.930;3.464;2022-08-24T10:43:25;31.40;46.20
42683;DHT22;28293;50.930;3.464;2022-08-24T10:48:58;31.40;47.80
42683;DHT22;28293;50.930;3.464;2022-08-24T10:54:15;31.90;46.70
42683;DHT22;28293;50.930;3.464;2022-08-24T10:57:11;31.70;46.70
42683;DHT22;28293;50.930;3.464;2022-08-24T11:00:06;32.00;45.90
42683;DHT22;28293;50.930;3.464;2022-08-24T11:02:37;31.80;46.10
42683;DHT22;28293;50.930;3.464;2022-08-24T11:05:27;31.90;46.10
42683;DHT22;28293;50.930;3.464;2022-08-24T11:07:59;32.00;45.50
42683;DHT22;28293;50.930;3.464;2022-08-24T11:10:34;32.00;45.40
42683;DHT22;28293;50.930;3.464;2022-08-24T11:13:20;32.30;45.10
42683;DHT22;28293;50.930;3.464;2022-08-24T11:15:49;32.30;45.10
42683;DHT22;28293;50.930;3.464;2022-08-24T11:18:16;32.40;44.40
42683;DHT22;28293;50.930;3.464;2022-08-24T11:20:44;32.30;44.90
42683;DHT22;28293;50.930;3.464;2022-08-24T11:23:34;31.70;46.00
42683;DHT22;28293;50.930;3.464;2022-08-24T11:26:11;31.40;46.20
42683;DHT22;28293;50.930;3.464;2022-08-24T11:28:50;31.40;46.10
42683;DHT22;28293;50.930;3.464;2022-08-24T11:31:39;31.70;45.70
42683;DHT22;28293;50.930;3.464;2022-08-24T11:34:19;32.10;45.30
42683;DHT22;28293;50.930;3.464;2022-08-24T11:36:54;32.50;43.80
42683;DHT22;28293;50.930;3.464;2022-08-24T11:39:23;32.80;42.50
42683;DHT22;28293;50.930;3.464;2022-08-24T11:43:02;33.10;41.80
42683;DHT22;28293;50.930;3.464;2022-08-24T11:45:02;33.40;41.60
42683;DHT22;28293;50.930;3.464;2022-08-24T11:54:04;32.00;43.20
42683;DHT22;28293;50.930;3.464;2022-08-24T12:18:50;31.90;43.40
42683;DHT22;28293;50.930;3.464;2022-08-24T12:21:21;31.70;44.00
42683;DHT22;28293;50.930;3.464;2022-08-24T12:23:51;31.50;44.30
42683;DHT22;28293;50.930;3.464;2022-08-24T12:26:36;31.30;45.40
42683;DHT22;28293;50.930;3.464;2022-08-24T12:29:07;31.20;45.40
42683;DHT22;28293;50.930;3.464;2022-08-24T12:31:41;31.30;46.20
42683;DHT22;28293;50.930;3.464;2022-08-24T12:34:22;31.20;44.90
42683;DHT22;28293;50.930;3.464;2022-08-24T12:37:10;31.10;46.20
42683;DHT22;28293;50.930;3.464;2022-08-24T12:40:03;30.90;46.20
42683;DHT22;28293;50.930;3.464;2022-08-24T12:42:59;30.80;47.60
42683;DHT22;28293;50.930;3.464;2022-08-24T12:45:25;30.70;47.30
42683;DHT22;28293;50.930;3.464;2022-08-24T12:50:53;30.70;48.40
42683;DHT22;28293;50.930;3.464;2022-08-24T12:56:25;30.50;49.30
42683;DHT22;28293;50.930;3.464;2022-08-24T13:01:31;30.50;48.90
42683;DHT22;28293;50.930;3.464;2022-08-24T13:06:50;30.60;48.30
42683;DHT22;28293;50.930;3.464;2022-08-24T13:09:39;30.70;47.90
42683;DHT22;28293;50.930;3.464;2022-08-24T13:31:20;31.00;46.60
42683;DHT22;28293;50.930;3.464;2022-08-24T13:48:09;31.30;47.00
42683;DHT22;28293;50.930;3.464;2022-08-24T13:51:08;31.30;44.80
42683;DHT22;28293;50.930;3.464;2022-08-24T13:59:07;31.30;45.80
42683;DHT22;28293;50.930;3.464;2022-08-24T14:07:27;31.60;44.60
42683;DHT22;28293;50.930;3.464;2022-08-24T14:15:02;31.80;44.40
42683;DHT22;28293;50.930;3.464;2022-08-24T14:24:04;32.30;44.00
42683;DHT22;28293;50.930;3.464;2022-08-24T14:37:16;32.80;41.60
42683;DHT22;28293;50.930;3.464;2022-08-24T14:39:54;32.90;41.70
42683;DHT22;28293;50.930;3.464;2022-08-24T14:42:32;33.00;41.20
42683;DHT22;28293;50.930;3.464;2022-08-24T14:47:43;31.90;43.00
42683;DHT22;28293;50.930;3.464;2022-08-24T14:50:16;32.20;43.30
42683;DHT22;28293;50.930;3.464;2022-08-24T14:55:30;32.70;41.80
42683;DHT22;28293;50.930;3.464;2022-08-24T14:58:19;32.90;41.50
42683;DHT22;28293;50.930;3.464;2022-08-24T15:04:00;33.40;41.30
42683;DHT22;28293;50.930;3.464;2022-08-24T15:11:37;33.40;40.60
42683;DHT22;28293;50.930;3.464;2022-08-24T15:14:07;32.80;42.30
42683;DHT22;28293;50.930;3.464;2022-08-24T15:16:46;32.40;43.20
42683;DHT22;28293;50.930;3.464;2022-08-24T15:19:18;32.00;44.10
42683;DHT22;28293;50.930;3.464;2022-08-24T15:24:41;32.20;43.90
42683;DHT22;28293;50.930;3.464;2022-08-24T15:30:29;32.10;43.00
42683;DHT22;28293;50.930;3.464;2022-08-24T15:33:22;31.90;43.80
42683;DHT22;28293;50.930;3.464;2022-08-24T15:36:02;31.70;43.60
42683;DHT22;28293;50.930;3.464;2022-08-24T15:43:33;31.80;43.60
42683;DHT22;28293;50.930;3.464;2022-08-24T15:46:00;31.80;44.40
42683;DHT22;28293;50.930;3.464;2022-08-24T15:48:27;31.70;43.90
42683;DHT22;28293;50.930;3.464;2022-08-24T15:50:54;31.80;43.80
42683;DHT22;28293;50.930;3.464;2022-08-24T15:53:36;31.70;44.30
42683;DHT22;28293;50.930;3.464;2022-08-24T15:56:27;31.70;43.80
42683;DHT22;28293;50.930;3.464;2022-08-24T15:59:09;31.60;44.50
42683;DHT22;28293;50.930;3.464;2022-08-24T16:01:35;31.60;44.40
42683;DHT22;28293;50.930;3.464;2022-08-24T16:04:48;31.40;44.80
42683;DHT22;28293;50.930;3.464;2022-08-24T16:07:21;31.20;45.40
42683;DHT22;28293;50.930;3.464;2022-08-24T16:09:47;30.80;46.40
42683;DHT22;28293;50.930;3.464;2022-08-24T16:12:24;30.80;46.80
42683;DHT22;28293;50.930;3.464;2022-08-24T16:15:12;30.60;47.00
42683;DHT22;28293;50.930;3.464;2022-08-24T16:17:40;30.50;47.10
42683;DHT22;28293;50.930;3.464;2022-08-24T16:22:56;30.20;47.60
42683;DHT22;28293;50.930;3.464;2022-08-24T16:25:27;30.20;48.20
42683;DHT22;28293;50.930;3.464;2022-08-24T16:33:04;30.60;47.10
42683;DHT22;28293;50.930;3.464;2022-08-24T16:35:30;30.90;47.10
42683;DHT22;28293;50.930;3.464;2022-08-24T16:37:58;30.70;47.30
42683;DHT22;28293;50.930;3.464;2022-08-24T16:40:24;30.70;47.70
42683;DHT22;28293;50.930;3.464;2022-08-24T16:42:49;30.50;47.80
42683;DHT22;28293;50.930;3.464;2022-08-24T16:45:18;30.30;48.30
42683;DHT22;28293;50.930;3.464;2022-08-24T16:47:45;30.40;48.70
42683;DHT22;28293;50.930;3.464;2022-08-24T16:50:12;30.50;48.60
42683;DHT22;28293;50.930;3.464;2022-08-24T16:52:38;30.50;48.00
42683;DHT22;28293;50.930;3.464;2022-08-24T16:55:05;30.60;48.00
42683;DHT22;28293;50.930;3.464;2022-08-24T16:57:32;30.50;48.00
42683;DHT22;28293;50.930;3.464;2022-08-24T17:00:07;30.50;47.70
42683;DHT22;28293;50.930;3.464;2022-08-24T17:02:33;30.50;48.40
42683;DHT22;28293;50.930;3.464;2022-08-24T17:04:59;30.40;48.40
42683;DHT22;28293;50.930;3.464;2022-08-24T17:07:27;30.50;48.00
42683;DHT22;28293;50.930;3.464;2022-08-24T17:09:53;30.30;48.50
42683;DHT22;28293;50.930;3.464;2022-08-24T17:12:20;30.20;48.80
42683;DHT22;28293;50.930;3.464;2022-08-24T17:14:46;30.10;49.40
42683;DHT22;28293;50.930;3.464;2022-08-24T17:17:17;30.20;49.60
42683;DHT22;28293;50.930;3.464;2022-08-24T17:19:46;30.20;49.10
42683;DHT22;28293;50.930;3.464;2022-08-24T17:22:13;30.10;49.30
42683;DHT22;28293;50.930;3.464;2022-08-24T17:24:38;30.00;49.10
42683;DHT22;28293;50.930;3.464;2022-08-24T17:27:04;29.90;49.70
42683;DHT22;28293;50.930;3.464;2022-08-24T17:29:30;29.80;49.80
42683;DHT22;28293;50.930;3.464;2022-08-24T17:31:56;29.70;50.20
42683;DHT22;28293;50.930;3.464;2022-08-24T17:34:24;29.60;50.30
42683;DHT22;28293;50.930;3.464;2022-08-24T17:36:53;29.50;50.80
42683;DHT22;28293;50.930;3.464;2022-08-24T17:39:20;29.30;51.20
42683;DHT22;28293;50.930;3.464;2022-08-24T17:41:52;29.30;51.30
42683;DHT22;28293;50.930;3.464;2022-08-24T17:44:21;29.30;51.30
42683;DHT22;28293;50.930;3.464;2022-08-24T17:46:49;29.30;51.60
42683;DHT22;28293;50.930;3.464;2022-08-24T17:49:16;29.20;51.80
42683;DHT22;28293;50.930;3.464;2022-08-24T17:51:43;29.30;51.60
42683;DHT22;28293;50.930;3.464;2022-08-24T17:54:09;29.30;51.50
42683;DHT22;28293;50.930;3.464;2022-08-24T17:56:35;29.30;51.40
42683;DHT22;28293;50.930;3.464;2022-08-24T17:59:07;29.20;51.50
42683;DHT22;28293;50.930;3.464;2022-08-24T18:01:53;29.10;52.00
42683;DHT22;28293;50.930;3.464;2022-08-24T18:04:21;29.00;52.10
42683;DHT22;28293;50.930;3.464;2022-08-24T18:06:50;29.00;52.60
42683;DHT22;28293;50.930;3.464;2022-08-24T18:09:46;29.10;52.50
42683;DHT22;28293;50.930;3.464;2022-08-24T18:12:14;29.00;52.30
42683;DHT22;28293;50.930;3.464;2022-08-24T18:14:40;29.00;53.10
42683;DHT22;28293;50.930;3.464;2022-08-24T18:17:08;28.90;53.60
42683;DHT22;28293;50.930;3.464;2022-08-24T18:19:36;28.90;54.20
42683;DHT22;28293;50.930;3.464;2022-08-24T18:22:03;29.00;54.50
42683;DHT22;28293;50.930;3.464;2022-08-24T18:24:29;29.00;54.70
42683;DHT22;28293;50.930;3.464;2022-08-24T18:27:00;29.00;54.90
42683;DHT22;28293;50.930;3.464;2022-08-24T18:29:28;28.90;55.00
42683;DHT22;28293;50.930;3.464;2022-08-24T18:31:55;28.80;55.20
42683;DHT22;28293;50.930;3.464;2022-08-24T18:34:21;28.70;55.40
42683;DHT22;28293;50.930;3.464;2022-08-24T18:36:47;28.60;55.70
42683;DHT22;28293;50.930;3.464;2022-08-24T18:39:13;28.50;56.00
42683;DHT22;28293;50.930;3.464;2022-08-24T18:41:41;28.40;56.30
42683;DHT22;28293;50.930;3.464;2022-08-24T18:44:08;28.30;56.50
42683;DHT22;28293;50.930;3.464;2022-08-24T18:46:36;28.20;56.60
42683;DHT22;28293;50.930;3.464;2022-08-24T18:49:02;28.10;56.70
42683;DHT22;28293;50.930;3.464;2022-08-24T18:51:28;28.00;57.20
42683;DHT22;28293;50.930;3.464;2022-08-24T18:53:59;27.80;57.60
42683;DHT22;28293;50.930;3.464;2022-08-24T18:56:25;27.70;58.00
42683;DHT22;28293;50.930;3.464;2022-08-24T18:58:51;27.60;58.10
42683;DHT22;28293;50.930;3.464;2022-08-24T19:01:18;27.60;58.30
42683;DHT22;28293;50.930;3.464;2022-08-24T19:03:44;27.50;58.30
42683;DHT22;28293;50.930;3.464;2022-08-24T19:06:10;27.40;58.40
42683;DHT22;28293;50.930;3.464;2022-08-24T19:08:36;27.30;58.70
42683;DHT22;28293;50.930;3.464;2022-08-24T19:11:02;27.20;59.00
42683;DHT22;28293;50.930;3.464;2022-08-24T19:13:27;27.10;59.00
42683;DHT22;28293;50.930;3.464;2022-08-24T19:15:53;27.10;58.90
42683;DHT22;28293;50.930;3.464;2022-08-24T19:18:20;27.10;59.10
42683;DHT22;28293;50.930;3.464;2022-08-24T19:20:48;27.00;59.20